createdAt,value
2018-04-19T00:01:02.702Z,14.30
2018-04-19T00:03:30.220Z,14.30
2018-04-19T00:05:57.733Z,14.20
2018-04-19T00:08:25.991Z,14.10
2018-04-19T00:10:53.512Z,14.10
2018-04-19T00:13:21.023Z,14.10
2018-04-19T00:15:48.537Z,14.20
2018-04-19T00:18:16.802Z,14.20
2018-04-19T00:20:44.348Z,14.10
2018-04-19T00:23:11.836Z,14.30
2018-04-19T00:25:39.375Z,14.20
2018-04-19T00:28:06.874Z,14.20
2018-04-19T00:30:34.396Z,14.20
2018-04-19T00:33:01.912Z,14.10
2018-04-19T00:35:29.449Z,14.10
2018-04-19T00:37:56.948Z,14.10
2018-04-19T00:40:24.468Z,14.00
2018-04-19T00:42:52.741Z,14.00
2018-04-19T00:45:20.263Z,14.00
2018-04-19T00:47:47.764Z,13.90
2018-04-19T00:50:15.276Z,13.90
2018-04-19T00:52:55.532Z,14.00
2018-04-19T00:55:23.052Z,14.00
2018-04-19T00:57:50.556Z,14.00
2018-04-19T01:00:18.088Z,14.00
2018-04-19T01:02:45.588Z,13.90
2018-04-19T01:05:13.101Z,13.80
2018-04-19T01:07:41.371Z,13.70
2018-04-19T01:10:08.903Z,13.70
2018-04-19T01:12:36.412Z,13.60
2018-04-19T01:15:03.918Z,13.60
2018-04-19T01:17:31.461Z,13.60
2018-04-19T01:19:58.958Z,13.50
2018-04-19T01:22:26.492Z,13.50
2018-04-19T01:24:53.997Z,13.40
2018-04-19T01:27:22.280Z,13.30
2018-04-19T01:29:50.536Z,13.20
2018-04-19T01:32:18.074Z,13.20
2018-04-19T01:34:45.568Z,13.20
2018-04-19T01:37:13.097Z,13.20
2018-04-19T01:39:40.601Z,13.20
2018-04-19T01:42:08.121Z,13.10
2018-04-19T01:44:36.391Z,13.10
2018-04-19T01:47:03.916Z,13.00
2018-04-19T01:49:31.424Z,13.10
2018-04-19T01:51:58.955Z,13.00
2018-04-19T01:54:26.455Z,13.00
2018-04-19T01:56:53.971Z,13.00
2018-04-19T01:59:22.228Z,13.00
2018-04-19T02:01:49.762Z,13.00
2018-04-19T02:04:17.261Z,13.00
2018-04-19T02:06:44.780Z,13.00
2018-04-19T02:09:13.040Z,13.00
2018-04-19T02:11:40.580Z,12.90
2018-04-19T02:14:08.076Z,12.90
2018-04-19T02:16:35.588Z,12.80
2018-04-19T02:19:03.093Z,12.70
2018-04-19T02:21:30.616Z,12.70
2018-04-19T02:23:58.876Z,12.70
2018-04-19T02:26:26.375Z,12.70
2018-04-19T02:28:54.659Z,12.60
2018-04-19T02:31:22.944Z,12.60
2018-04-19T02:33:51.245Z,12.50
2018-04-19T02:36:18.750Z,12.50
2018-04-19T02:38:46.261Z,12.50
2018-04-19T02:41:13.764Z,12.40
2018-04-19T02:43:42.051Z,12.40
2018-04-19T02:46:10.324Z,12.40
2018-04-19T02:48:38.624Z,12.40
2018-04-19T02:51:06.887Z,12.50
2018-04-19T02:53:34.408Z,12.50
2018-04-19T02:56:01.908Z,12.40
2018-04-19T02:58:29.444Z,12.40
2018-04-19T03:00:56.936Z,12.30
2018-04-19T03:03:24.468Z,12.40
2018-04-19T03:05:52.737Z,12.30
2018-04-19T03:08:20.266Z,12.30
2018-04-19T03:10:47.768Z,12.30
2018-04-19T03:13:15.288Z,12.30
2018-04-19T03:15:42.783Z,12.30
2018-04-19T03:18:10.297Z,12.30
2018-04-19T03:20:37.806Z,12.30
2018-04-19T03:23:05.319Z,12.30
2018-04-19T03:25:32.836Z,12.20
2018-04-19T03:28:01.120Z,12.10
2018-04-19T03:30:29.383Z,12.10
2018-04-19T03:32:56.894Z,12.10
2018-04-19T03:35:24.450Z,12.20
2018-04-19T03:37:51.940Z,12.30
2018-04-19T03:40:19.445Z,12.30
2018-04-19T03:42:46.974Z,12.20
2018-04-19T03:45:14.480Z,12.30
2018-04-19T03:47:41.980Z,12.20
2018-04-19T03:50:09.501Z,12.20
2018-04-19T03:52:37.013Z,12.20
2018-04-19T03:55:04.539Z,12.20
2018-04-19T03:57:32.044Z,12.20
2018-04-19T03:59:59.568Z,12.20
2018-04-19T04:02:27.840Z,12.10
2018-04-19T04:04:56.125Z,12.10
2018-04-19T04:07:23.666Z,12.10
2018-04-19T04:09:51.957Z,12.00
2018-04-19T04:12:19.460Z,12.00
2018-04-19T04:14:47.749Z,12.10
2018-04-19T04:17:26.984Z,12.10
2018-04-19T04:20:06.465Z,12.00
2018-04-19T04:22:46.587Z,12.10
2018-04-19T04:25:14.104Z,12.10
2018-04-19T04:27:42.454Z,12.20
2018-04-19T04:30:09.972Z,12.10
2018-04-19T04:32:38.241Z,12.10
2018-04-19T04:35:06.524Z,12.10
2018-04-19T04:37:34.023Z,12.10
2018-04-19T04:40:01.546Z,12.10
2018-04-19T04:42:29.044Z,12.10
2018-04-19T04:44:57.325Z,12.60
2018-04-19T04:47:24.835Z,12.60
2018-04-19T04:49:52.353Z,12.90
2018-04-19T04:52:19.855Z,13.20
2018-04-19T04:54:48.140Z,14.10
2018-04-19T04:57:16.404Z,14.40
2018-04-19T04:59:43.938Z,14.50
2018-04-19T05:02:11.438Z,14.70
2018-04-19T05:04:38.971Z,14.90
2018-04-19T05:07:06.473Z,15.10
2018-04-19T05:09:34.010Z,15.20
2018-04-19T05:12:01.544Z,15.60
2018-04-19T05:14:29.077Z,16.00
2018-04-19T05:16:56.572Z,16.20
2018-04-19T05:19:24.096Z,16.20
2018-04-19T05:21:51.608Z,16.30
2018-04-19T05:24:19.099Z,16.20
2018-04-19T05:29:20.347Z,16.60
2018-04-19T05:31:47.875Z,16.60
2018-04-19T05:34:16.147Z,16.80
2018-04-19T05:36:43.723Z,16.70
2018-04-19T05:39:11.225Z,16.60
2018-04-19T05:41:38.740Z,16.40
2018-04-19T05:44:06.239Z,16.40
2018-04-19T05:46:33.757Z,16.60
2018-04-19T05:49:01.263Z,16.80
2018-04-19T05:51:28.786Z,17.00
2018-04-19T05:53:56.365Z,17.00
2018-04-19T05:56:23.905Z,17.00
2018-04-19T05:58:52.185Z,17.60
2018-04-19T06:01:20.485Z,17.70
2018-04-19T06:03:48.751Z,17.80
2018-04-19T06:06:16.265Z,17.80
2018-04-19T06:08:44.192Z,17.90
2018-04-19T06:11:11.712Z,17.70
2018-04-19T06:13:39.976Z,17.70
2018-04-19T06:16:07.513Z,17.70
2018-04-19T06:18:35.018Z,17.60
2018-04-19T06:21:02.549Z,17.80
2018-04-19T06:23:30.047Z,17.90
2018-04-19T06:25:57.567Z,17.70
2018-04-19T06:30:59.089Z,17.60
2018-04-19T06:33:26.595Z,17.60
2018-04-19T06:35:54.158Z,17.50
2018-04-19T06:38:21.647Z,17.60
2018-04-19T06:40:49.165Z,17.70
2018-04-19T06:43:16.671Z,17.80
2018-04-19T06:45:44.205Z,17.90
2018-04-19T06:48:11.736Z,18.00
2018-04-19T06:50:39.233Z,18.10
2018-04-19T06:53:06.816Z,18.20
2018-04-19T06:55:35.048Z,18.70
2018-04-19T06:58:02.581Z,18.70
2018-04-19T07:00:31.018Z,18.90
2018-04-19T07:02:58.542Z,19.00
2018-04-19T07:05:26.042Z,19.20
2018-04-19T07:07:53.574Z,19.40
2018-04-19T07:10:21.090Z,19.50
2018-04-19T07:12:48.719Z,19.60
2018-04-19T07:15:16.216Z,19.70
2018-04-19T07:17:43.740Z,19.90
2018-04-19T07:20:12.003Z,20.00
2018-04-19T07:22:39.548Z,20.00
2018-04-19T07:25:07.050Z,19.90
2018-04-19T07:27:34.589Z,19.90
2018-04-19T07:30:02.095Z,19.90
2018-04-19T07:32:29.611Z,19.70
2018-04-19T07:34:57.124Z,19.80
2018-04-19T07:37:24.660Z,19.40
2018-04-19T07:39:52.164Z,19.50
2018-04-19T07:42:19.696Z,19.50
2018-04-19T07:44:47.202Z,19.70
2018-04-19T07:47:14.725Z,19.80
2018-04-19T07:49:42.220Z,19.80
2018-04-19T07:52:09.742Z,20.00
2018-04-19T07:54:37.236Z,20.00
2018-04-19T07:57:05.533Z,20.20
2018-04-19T07:59:33.038Z,20.20
2018-04-19T08:02:00.557Z,20.40
2018-04-19T08:04:28.825Z,20.30
2018-04-19T08:06:56.328Z,20.30
2018-04-19T08:09:23.847Z,20.30
2018-04-19T08:11:51.345Z,20.40
2018-04-19T08:14:18.861Z,20.30
2018-04-19T08:19:20.397Z,20.50
2018-04-19T08:21:47.888Z,20.70
2018-04-19T08:24:16.175Z,21.20
2018-04-19T08:26:43.677Z,21.20
2018-04-19T08:29:11.229Z,21.30
2018-04-19T08:34:37.748Z,21.20
2018-04-19T08:37:05.661Z,21.30
2018-04-19T08:39:33.205Z,21.60
2018-04-19T08:42:00.712Z,21.50
2018-04-19T08:44:28.244Z,21.40
2018-04-19T08:46:55.907Z,21.50
2018-04-19T08:49:23.443Z,21.60
2018-04-19T08:51:51.860Z,21.90
2018-04-19T08:54:19.382Z,21.80
2018-04-19T08:56:46.885Z,22.10
2018-04-19T08:59:15.197Z,22.30
2018-04-19T09:01:42.749Z,22.30
2018-04-19T09:04:11.028Z,22.40
2018-04-19T09:06:39.299Z,22.60
2018-04-19T09:09:06.822Z,22.60
2018-04-19T09:11:34.341Z,22.70
2018-04-19T09:14:01.864Z,22.70
2018-04-19T09:16:29.376Z,22.60
2018-04-19T09:18:57.070Z,22.90
2018-04-19T09:21:25.380Z,23.00
2018-04-19T09:23:53.680Z,23.00
2018-04-19T09:26:21.241Z,23.00
2018-04-19T09:28:50.503Z,23.20
2018-04-19T09:31:25.993Z,23.10
2018-04-19T09:33:53.635Z,23.10
2018-04-19T09:36:21.140Z,23.10
2018-04-19T09:38:49.433Z,23.50
2018-04-19T09:41:17.710Z,23.10
2018-04-19T09:43:46.023Z,23.20
2018-04-19T09:46:14.304Z,23.30
2018-04-19T09:48:41.832Z,23.30
2018-04-19T09:51:09.361Z,23.50
2018-04-19T09:53:36.887Z,23.60
2018-04-19T09:56:04.429Z,23.80
2018-04-19T09:58:31.979Z,23.80
2018-04-19T10:01:05.124Z,23.80
2018-04-19T10:03:38.319Z,24.00
2018-04-19T10:06:07.731Z,24.00
2018-04-19T10:08:35.248Z,23.90
2018-04-19T10:11:02.771Z,24.00
2018-04-19T10:13:30.278Z,23.90
2018-04-19T10:15:57.816Z,24.10
2018-04-19T10:18:25.332Z,23.60
2018-04-19T10:20:52.854Z,23.50
2018-04-19T10:23:20.361Z,23.60
2018-04-19T10:25:47.900Z,23.70
2018-04-19T10:28:15.403Z,24.00
2018-04-19T10:30:42.924Z,23.90
2018-04-19T10:33:10.436Z,23.80
2018-04-19T10:35:37.952Z,23.90
2018-04-19T10:38:06.221Z,24.10
2018-04-19T10:40:33.739Z,24.10
2018-04-19T10:43:01.242Z,24.30
2018-04-19T10:45:28.760Z,24.40
2018-04-19T10:47:57.026Z,24.70
2018-04-19T10:50:24.543Z,24.60
2018-04-19T10:52:52.070Z,24.90
2018-04-19T10:55:19.635Z,24.80
2018-04-19T10:57:47.929Z,25.00
2018-04-19T11:00:15.452Z,24.90
2018-04-19T11:02:42.973Z,25.10
2018-04-19T11:05:10.513Z,25.20
2018-04-19T11:07:38.021Z,25.10
2018-04-19T11:10:06.306Z,25.30
2018-04-19T11:12:34.617Z,25.20
2018-04-19T11:15:02.164Z,25.20
2018-04-19T11:17:29.669Z,25.30
2018-04-19T11:19:57.185Z,25.50
2018-04-19T11:22:24.708Z,25.20
2018-04-19T11:24:52.231Z,25.40
2018-04-19T11:27:19.751Z,25.60
2018-04-19T11:29:47.293Z,25.50
2018-04-19T11:32:14.812Z,25.30
2018-04-19T11:34:42.325Z,25.50
2018-04-19T11:37:09.857Z,25.40
2018-04-19T11:39:37.359Z,25.60
2018-04-19T11:42:04.988Z,25.50
2018-04-19T11:44:32.488Z,25.60
2018-04-19T11:47:00.023Z,25.70
2018-04-19T11:49:27.529Z,25.70
2018-04-19T11:51:55.063Z,25.80
2018-04-19T11:54:22.572Z,25.90
2018-04-19T11:56:50.085Z,25.90
2018-04-19T11:59:17.601Z,25.80
2018-04-19T12:01:45.129Z,25.90
2018-04-19T12:04:13.412Z,26.20
2018-04-19T12:06:40.927Z,26.20
2018-04-19T12:09:09.191Z,25.90
2018-04-19T12:11:37.485Z,26.10
2018-04-19T12:14:05.766Z,26.20
2018-04-19T12:16:34.059Z,26.30
2018-04-19T12:19:02.333Z,26.00
2018-04-19T12:21:29.924Z,25.90
2018-04-19T12:23:58.216Z,26.30
2018-04-19T12:26:25.864Z,26.30
2018-04-19T12:28:54.144Z,26.50
2018-04-19T12:31:21.676Z,26.50
2018-04-19T12:33:49.961Z,26.70
2018-04-19T12:36:17.661Z,26.60
2018-04-19T12:38:45.312Z,26.60
2018-04-19T12:41:12.833Z,26.60
2018-04-19T12:43:40.344Z,26.60
2018-04-19T12:46:07.862Z,26.30
2018-04-19T12:48:35.357Z,26.50
2018-04-19T12:51:03.629Z,26.50
2018-04-19T12:53:31.192Z,26.50
2018-04-19T12:55:58.689Z,26.50
2018-04-19T12:58:26.996Z,26.60
2018-04-19T13:00:55.267Z,26.70
2018-04-19T13:03:22.788Z,26.70
2018-04-19T13:05:50.291Z,26.80
2018-04-19T13:08:17.813Z,26.80
2018-04-19T13:10:45.328Z,26.50
2018-04-19T13:13:12.857Z,26.60
2018-04-19T13:15:40.378Z,26.70
2018-04-19T13:18:07.932Z,26.70
2018-04-19T13:20:36.221Z,26.40
2018-04-19T13:23:03.747Z,26.40
2018-04-19T13:25:32.024Z,26.60
2018-04-19T13:28:00.305Z,26.60
2018-04-19T13:30:27.825Z,26.60
2018-04-19T13:32:55.340Z,26.50
2018-04-19T13:35:22.954Z,26.60
2018-04-19T13:37:50.473Z,26.60
2018-04-19T13:40:17.984Z,26.70
2018-04-19T13:42:46.275Z,27.10
2018-04-19T13:45:13.768Z,27.10
2018-04-19T13:47:41.293Z,27.10
2018-04-19T13:50:09.572Z,26.80
2018-04-19T13:52:38.597Z,26.90
2018-04-19T13:55:06.863Z,26.90
2018-04-19T13:57:34.394Z,26.90
2018-04-19T14:00:01.897Z,27.00
2018-04-19T14:02:29.463Z,26.70
2018-04-19T14:04:56.960Z,26.80
2018-04-19T14:07:25.249Z,27.00
2018-04-19T14:09:52.773Z,27.00
2018-04-19T14:12:20.301Z,27.10
2018-04-19T14:14:48.591Z,27.10
2018-04-19T14:17:16.889Z,27.10
2018-04-19T14:19:45.194Z,26.80
2018-04-19T14:22:12.687Z,26.80
2018-04-19T14:24:40.199Z,26.90
2018-04-19T14:27:07.700Z,27.00
2018-04-19T14:29:36.039Z,27.20
2018-04-19T14:32:04.312Z,27.30
2018-04-19T14:34:31.837Z,27.30
2018-04-19T14:37:00.156Z,27.20
2018-04-19T14:39:28.429Z,26.90
2018-04-19T14:41:56.705Z,26.70
2018-04-19T14:44:25.006Z,26.70
2018-04-19T14:46:53.344Z,26.70
2018-04-19T14:49:20.864Z,26.70
2018-04-19T14:51:49.182Z,26.70
2018-04-19T14:54:17.444Z,26.80
2018-04-19T14:56:45.708Z,26.70
2018-04-19T14:59:13.245Z,26.70
2018-04-19T15:01:40.761Z,26.90
2018-04-19T15:04:08.728Z,26.90
2018-04-19T15:06:36.566Z,26.90
2018-04-19T15:09:04.776Z,26.90
2018-04-19T15:11:32.313Z,26.90
2018-04-19T15:13:59.873Z,26.80
2018-04-19T15:16:27.391Z,26.80
2018-04-19T15:18:54.970Z,26.90
2018-04-19T15:21:22.604Z,26.80
2018-04-19T15:23:50.169Z,26.90
2018-04-19T15:26:17.692Z,26.70
2018-04-19T15:28:45.204Z,26.70
2018-04-19T15:31:13.496Z,26.70
2018-04-19T15:33:41.022Z,26.70
2018-04-19T15:36:08.544Z,26.70
2018-04-19T15:38:36.069Z,26.70
2018-04-19T15:41:03.618Z,26.60
2018-04-19T15:43:31.139Z,26.60
2018-04-19T15:45:59.524Z,26.50
2018-04-19T15:48:27.809Z,26.60
2018-04-19T15:50:55.340Z,26.60
2018-04-19T15:53:22.868Z,26.60
2018-04-19T15:55:51.166Z,26.60
2018-04-19T15:58:18.691Z,26.60
2018-04-19T16:00:46.648Z,26.50
2018-04-19T16:03:14.234Z,26.30
2018-04-19T16:05:41.967Z,26.40
2018-04-19T16:08:12.431Z,26.40
2018-04-19T16:10:40.160Z,26.40
2018-04-19T16:13:08.648Z,26.40
2018-04-19T16:15:36.380Z,26.40
2018-04-19T16:18:04.171Z,26.30
2018-04-19T16:20:32.644Z,26.20
2018-04-19T16:23:00.179Z,26.20
2018-04-19T16:25:28.476Z,26.10
2018-04-19T16:27:56.748Z,26.20
2018-04-19T16:30:24.288Z,26.20
2018-04-19T16:32:51.781Z,26.30
2018-04-19T16:35:19.308Z,26.30
2018-04-19T16:37:47.681Z,26.20
2018-04-19T16:40:16.691Z,26.20
2018-04-19T16:42:45.887Z,26.10
2018-04-19T16:45:13.395Z,26.10
2018-04-19T16:47:41.660Z,26.10
2018-04-19T16:50:09.313Z,26.10
2018-04-19T16:52:38.050Z,26.00
2018-04-19T16:55:05.700Z,26.00
2018-04-19T16:57:33.294Z,25.90
2018-04-19T17:00:00.934Z,25.80
2018-04-19T17:02:28.443Z,25.80
2018-04-19T17:04:55.969Z,25.70
2018-04-19T17:07:23.496Z,25.70
2018-04-19T17:09:51.012Z,25.70
2018-04-19T17:12:18.541Z,25.70
2018-04-19T17:14:46.081Z,25.70
2018-04-19T17:17:13.581Z,25.60
2018-04-19T17:19:41.085Z,25.60
2018-04-19T17:22:08.842Z,25.50
2018-04-19T17:24:37.241Z,25.10
2018-04-19T17:27:04.864Z,25.10
2018-04-19T17:29:32.406Z,25.00
2018-04-19T17:31:59.946Z,24.80
2018-04-19T17:34:28.085Z,24.60
2018-04-19T17:36:56.671Z,24.50
2018-04-19T17:39:24.219Z,24.50
2018-04-19T17:41:52.644Z,24.30
2018-04-19T17:44:20.191Z,24.30
2018-04-19T17:46:47.893Z,24.10
2018-04-19T17:49:15.425Z,24.00
2018-04-19T17:51:43.770Z,23.90
2018-04-19T17:54:11.300Z,23.80
2018-04-19T17:56:38.836Z,23.80
2018-04-19T17:59:06.343Z,23.70
2018-04-19T18:01:33.867Z,23.60
2018-04-19T18:04:01.381Z,23.50
2018-04-19T18:06:28.938Z,23.40
2018-04-19T18:08:57.216Z,23.20
2018-04-19T18:11:24.765Z,23.10
2018-04-19T18:13:52.310Z,23.10
2018-04-19T18:16:19.844Z,23.00
2018-04-19T18:18:48.128Z,22.80
2018-04-19T18:21:16.428Z,22.70
2018-04-19T18:23:44.701Z,22.60
2018-04-19T18:26:12.252Z,22.60
2018-04-19T18:28:40.531Z,22.40
2018-04-19T18:31:08.293Z,22.40
2018-04-19T18:33:35.927Z,22.50
2018-04-19T18:36:03.489Z,22.40
2018-04-19T18:38:31.786Z,22.40
2018-04-19T18:41:00.159Z,22.20
2018-04-19T18:43:27.762Z,22.20
2018-04-19T18:45:55.824Z,22.20
2018-04-19T18:48:23.419Z,22.10
2018-04-19T18:50:52.430Z,22.00
2018-04-19T18:53:20.082Z,22.00
2018-04-19T18:55:47.729Z,21.80
2018-04-19T18:58:15.278Z,21.80
2018-04-19T19:00:42.799Z,21.80
2018-04-19T19:03:10.387Z,21.70
2018-04-19T19:05:37.951Z,21.80
2018-04-19T19:08:06.276Z,21.50
2018-04-19T19:10:33.793Z,21.50
2018-04-19T19:13:01.322Z,21.40
2018-04-19T19:19:05.962Z,21.10
2018-04-19T19:21:33.510Z,21.10
2018-04-19T19:24:01.089Z,21.10
2018-04-19T19:26:28.609Z,21.00
2018-04-19T19:28:56.115Z,20.90
2018-04-19T19:31:23.652Z,20.90
2018-04-19T19:33:51.178Z,20.90
2018-04-19T19:36:18.686Z,20.90
2018-04-19T19:38:46.996Z,20.60
2018-04-19T19:41:14.518Z,20.60
2018-04-19T19:43:42.053Z,20.70
2018-04-19T19:46:09.565Z,20.60
2018-04-19T19:48:37.083Z,20.50
2018-04-19T19:51:04.580Z,20.50
2018-04-19T19:53:32.098Z,20.30
2018-04-19T19:55:59.626Z,20.10
2018-04-19T19:58:27.175Z,19.90
2018-04-19T20:00:54.689Z,19.70
2018-04-19T20:03:22.945Z,19.50
2018-04-19T20:05:50.490Z,19.30
2018-04-19T20:08:18.763Z,19.10
2018-04-19T20:10:47.039Z,18.90
2018-04-19T20:13:15.348Z,19.00
2018-04-19T20:15:43.628Z,19.00
2018-04-19T20:18:11.940Z,18.90
2018-04-19T20:20:39.447Z,18.80
2018-04-19T20:23:06.989Z,18.90
2018-04-19T20:25:34.497Z,19.00
2018-04-19T20:28:02.352Z,19.00
2018-04-19T20:30:30.129Z,18.90
2018-04-19T20:32:57.681Z,18.80
2018-04-19T20:35:25.962Z,18.70
2018-04-19T20:37:53.971Z,18.60
2018-04-19T20:40:21.488Z,18.70
2018-04-19T20:42:49.018Z,18.80
2018-04-19T20:45:16.573Z,18.70
2018-04-19T20:47:44.096Z,18.60
2018-04-19T20:50:11.602Z,18.60
2018-04-19T20:52:39.171Z,18.60
2018-04-19T20:55:07.434Z,18.50
2018-04-19T20:57:35.704Z,18.40
2018-04-19T21:00:04.232Z,18.30
2018-04-19T21:02:31.901Z,18.30
2018-04-19T21:05:00.560Z,18.20
2018-04-19T21:07:28.291Z,18.10
2018-04-19T21:09:55.910Z,18.10
2018-04-19T21:12:23.444Z,18.00
2018-04-19T21:14:50.981Z,18.00
2018-04-19T21:17:18.486Z,18.00
2018-04-19T21:19:46.009Z,17.90
2018-04-19T21:22:13.640Z,17.80
2018-04-19T21:24:41.311Z,17.60
2018-04-19T21:27:08.989Z,17.40
2018-04-19T21:29:37.423Z,17.30
2018-04-19T21:32:05.241Z,17.10
2018-04-19T21:34:32.774Z,17.10
2018-04-19T21:37:00.279Z,17.00
2018-04-19T21:39:28.553Z,16.70
2018-04-19T21:41:56.106Z,16.70
2018-04-19T21:44:23.590Z,16.60
2018-04-19T21:46:51.090Z,16.60
2018-04-19T21:49:18.610Z,16.50
2018-04-19T21:51:46.103Z,16.50
2018-04-19T21:54:13.600Z,16.40
2018-04-19T21:56:41.187Z,16.30
2018-04-19T21:59:08.800Z,16.30
2018-04-19T22:01:36.369Z,16.20
2018-04-19T22:04:11.112Z,16.20
2018-04-19T22:06:38.707Z,16.30
2018-04-19T22:09:06.301Z,16.10
2018-04-19T22:11:34.803Z,16.00
2018-04-19T22:14:02.545Z,15.90
2018-04-19T22:16:30.096Z,15.90
2018-04-19T22:18:57.596Z,15.80
2018-04-19T22:21:29.221Z,15.70
2018-04-19T22:23:56.823Z,15.70
2018-04-19T22:26:24.584Z,15.60
2018-04-19T22:28:52.280Z,15.60
2018-04-19T22:31:19.804Z,15.60
2018-04-19T22:33:47.487Z,15.60
2018-04-19T22:36:15.139Z,15.60
2018-04-19T22:38:43.405Z,15.40
2018-04-19T22:41:11.771Z,15.30
2018-04-19T22:43:39.260Z,15.30
2018-04-19T22:46:06.964Z,15.30
2018-04-19T22:48:34.654Z,15.20
2018-04-19T22:51:02.218Z,15.20
2018-04-19T22:53:29.761Z,15.30
2018-04-19T22:58:31.947Z,15.30
2018-04-19T23:01:03.029Z,15.20
2018-04-19T23:03:31.307Z,15.10
2018-04-19T23:05:58.833Z,15.10
2018-04-19T23:08:26.361Z,15.10
2018-04-19T23:10:54.719Z,15.00
2018-04-19T23:13:22.895Z,15.00
2018-04-19T23:15:50.441Z,14.90
2018-04-19T23:18:18.012Z,14.80
2018-04-19T23:20:45.643Z,14.70
2018-04-19T23:23:13.195Z,14.70
2018-04-19T23:25:40.696Z,14.60
2018-04-19T23:28:08.220Z,14.60
2018-04-19T23:30:35.783Z,14.50
2018-04-19T23:33:03.269Z,14.50
2018-04-19T23:35:30.776Z,14.40
2018-04-19T23:37:58.299Z,14.40
2018-04-19T23:40:25.793Z,14.40
2018-04-19T23:42:53.314Z,14.30
2018-04-19T23:45:21.568Z,14.30
2018-04-19T23:47:49.102Z,14.20
2018-04-19T23:50:16.599Z,14.20
2018-04-19T23:52:44.112Z,14.20
2018-04-19T23:55:11.634Z,14.20
2018-04-19T23:57:39.164Z,14.30
